createdAt,value
2023-03-22T00:00:07.200Z,10.13
2023-03-22T00:04:32.846Z,10.07
2023-03-22T00:08:57.005Z,10.00
2023-03-22T00:13:20.870Z,11.38
2023-03-22T00:17:45.462Z,11.00
2023-03-22T00:22:11.646Z,10.73
2023-03-22T00:26:36.013Z,11.43
2023-03-22T00:31:02.632Z,10.33
2023-03-22T00:35:26.554Z,10.75
2023-03-22T00:39:53.036Z,9.75
2023-03-22T00:44:11.090Z,8.57
2023-03-22T00:48:35.081Z,8.20
2023-03-22T00:52:59.050Z,7.32
2023-03-22T00:57:24.697Z,7.32
2023-03-22T01:01:48.870Z,7.10
2023-03-22T01:06:13.252Z,6.80
2023-03-22T01:10:38.100Z,7.15
2023-03-22T01:15:03.714Z,7.00
2023-03-22T01:19:28.117Z,6.88
2023-03-22T01:23:54.834Z,6.97
2023-03-22T01:28:18.758Z,5.70
2023-03-22T01:32:44.793Z,5.90
2023-03-22T01:37:08.981Z,6.25
2023-03-22T01:41:37.533Z,5.90
2023-03-22T01:46:09.746Z,6.00
2023-03-22T01:50:37.541Z,5.97
2023-03-22T01:55:02.049Z,5.80
2023-03-22T01:59:34.130Z,5.90
2023-03-22T02:04:34.031Z,6.30
2023-03-22T02:09:02.391Z,5.40
2023-03-22T02:13:42.500Z,5.47
2023-03-22T02:18:56.120Z,5.50
2023-03-22T02:23:54.183Z,5.13
2023-03-22T02:28:28.355Z,5.35
2023-03-22T02:33:22.550Z,5.57
2023-03-22T02:38:14.165Z,6.10
2023-03-22T02:42:48.767Z,5.43
2023-03-22T02:47:21.672Z,6.63
2023-03-22T02:51:50.259Z,6.18
2023-03-22T02:56:19.720Z,5.68
2023-03-22T03:00:47.624Z,5.90
2023-03-22T03:05:14.244Z,5.60
2023-03-22T03:09:40.098Z,5.15
2023-03-22T03:14:04.483Z,5.55
2023-03-22T03:18:40.685Z,4.80
2023-03-22T03:23:16.488Z,5.47
2023-03-22T03:27:46.285Z,5.05
2023-03-22T03:32:16.480Z,6.00
2023-03-22T03:37:12.392Z,4.45
2023-03-22T03:42:12.393Z,4.85
2023-03-22T03:46:26.196Z,5.23
2023-03-22T03:50:54.634Z,4.85
2023-03-22T03:55:20.604Z,5.00
2023-03-22T03:59:44.685Z,5.38
2023-03-22T04:04:26.543Z,4.93
2023-03-22T04:08:58.138Z,5.10
2023-03-22T04:13:29.830Z,5.15
2023-03-22T04:17:57.057Z,5.53
2023-03-22T04:22:25.224Z,5.60
2023-03-22T04:26:49.383Z,5.40
2023-03-22T04:31:22.451Z,5.17
2023-03-22T04:35:57.338Z,5.80
2023-03-22T04:40:31.668Z,5.32
2023-03-22T04:45:03.790Z,5.45
2023-03-22T04:49:29.623Z,5.30
2023-03-22T04:53:54.104Z,6.60
2023-03-22T04:58:22.129Z,5.28
2023-03-22T05:02:46.700Z,6.30
2023-03-22T05:07:23.982Z,7.07
2023-03-22T05:11:53.116Z,7.72
2023-03-22T05:16:41.457Z,7.37
2023-03-22T05:21:06.917Z,9.82
2023-03-22T05:25:34.251Z,7.80
2023-03-22T05:29:59.923Z,7.18
2023-03-22T05:34:36.533Z,6.67
2023-03-22T05:39:12.366Z,5.60
2023-03-22T05:43:37.750Z,5.18
2023-03-22T05:48:02.287Z,5.97
2023-03-22T05:52:27.752Z,6.93
2023-03-22T05:57:13.413Z,6.95
2023-03-22T06:01:39.469Z,7.10
2023-03-22T06:06:14.784Z,7.45
2023-03-22T06:10:49.347Z,6.07
2023-03-22T06:15:13.898Z,6.32
2023-03-22T06:19:54.853Z,7.23
2023-03-22T06:24:19.082Z,6.88
2023-03-22T06:28:43.049Z,6.13
2023-03-22T06:33:08.947Z,6.83
2023-03-22T06:37:37.425Z,7.82
2023-03-22T06:42:42.534Z,8.43
2023-03-22T06:47:09.968Z,7.93
2023-03-22T06:51:44.578Z,6.78
2023-03-22T06:56:11.350Z,7.28
2023-03-22T07:00:44.981Z,7.78
2023-03-22T07:05:11.330Z,7.50
2023-03-22T07:09:40.677Z,7.53
2023-03-22T07:14:06.330Z,7.55
2023-03-22T07:18:48.705Z,7.70
2023-03-22T07:23:12.938Z,7.07
2023-03-22T07:27:44.594Z,8.25
2023-03-22T07:32:10.498Z,7.53
2023-03-22T07:37:03.061Z,7.20
2023-03-22T07:41:30.262Z,7.72
2023-03-22T07:46:23.837Z,7.35
2023-03-22T07:51:07.936Z,6.67
2023-03-22T07:55:31.916Z,6.40
2023-03-22T07:59:56.610Z,6.47
2023-03-22T08:04:23.761Z,6.23
2023-03-22T08:09:04.405Z,6.50
2023-03-22T08:13:28.398Z,6.40
2023-03-22T08:17:53.012Z,6.47
2023-03-22T08:22:29.835Z,6.38
2023-03-22T08:27:27.421Z,6.47
2023-03-22T08:31:53.392Z,5.72
2023-03-22T08:36:19.735Z,6.40
2023-03-22T08:40:52.680Z,6.40
2023-03-22T08:45:22.713Z,6.10
2023-03-22T08:49:55.166Z,7.03
2023-03-22T08:54:28.069Z,6.50
2023-03-22T08:59:01.076Z,7.32
2023-03-22T09:03:54.412Z,6.10
2023-03-22T09:08:19.720Z,6.60
2023-03-22T09:12:47.910Z,6.47
2023-03-22T09:17:11.678Z,5.97
2023-03-22T09:21:37.362Z,5.20
2023-03-22T09:26:11.154Z,5.70
2023-03-22T09:30:36.642Z,5.22
2023-03-22T09:35:01.984Z,5.50
2023-03-22T09:39:38.520Z,4.47
2023-03-22T09:44:06.482Z,4.88
2023-03-22T09:48:34.692Z,3.70
2023-03-22T09:52:59.865Z,4.18
2023-03-22T09:57:33.615Z,4.50
2023-03-22T10:02:01.164Z,4.38
2023-03-22T10:06:29.000Z,4.33
2023-03-22T10:10:53.882Z,4.15
2023-03-22T10:15:22.482Z,4.18
2023-03-22T10:19:49.949Z,5.20
2023-03-22T10:24:18.760Z,4.60
2023-03-22T10:28:46.134Z,4.80
2023-03-22T10:33:17.676Z,5.43
2023-03-22T10:37:45.048Z,4.78
2023-03-22T10:42:12.680Z,4.38
2023-03-22T10:46:40.091Z,4.50
2023-03-22T10:51:06.134Z,4.00
2023-03-22T10:55:30.366Z,4.40
2023-03-22T10:59:57.580Z,3.95
2023-03-22T11:04:21.993Z,3.80
2023-03-22T11:08:49.143Z,3.85
2023-03-22T11:13:18.816Z,3.65
2023-03-22T11:17:43.342Z,45.23
2023-03-22T11:22:16.228Z,37.95
2023-03-22T11:26:41.893Z,81.20
2023-03-22T11:31:12.602Z,6.22
2023-03-22T11:35:39.021Z,204.33
2023-03-22T11:40:05.175Z,225.20
2023-03-22T11:44:35.496Z,61.92
2023-03-22T11:49:02.804Z,294.97
2023-03-22T11:53:28.690Z,358.30
2023-03-22T11:57:55.989Z,411.73
2023-03-22T12:02:24.784Z,411.10
2023-03-22T12:06:50.316Z,397.92
2023-03-22T12:11:20.221Z,255.75
2023-03-22T12:15:48.655Z,212.10
2023-03-22T12:20:22.843Z,156.33
2023-03-22T12:24:47.169Z,241.25
2023-03-22T12:29:19.256Z,324.65
2023-03-22T12:33:46.183Z,339.20
2023-03-22T12:38:22.947Z,211.40
2023-03-22T12:42:56.644Z,288.95
2023-03-22T12:47:26.346Z,130.07
2023-03-22T12:51:52.951Z,386.63
2023-03-22T12:56:20.947Z,461.55
2023-03-22T13:00:49.104Z,423.20
2023-03-22T13:05:13.211Z,382.83
2023-03-22T13:09:40.584Z,444.67
2023-03-22T13:14:06.241Z,356.60
2023-03-22T13:18:38.326Z,374.70
2023-03-22T13:23:27.632Z,480.05
2023-03-22T13:27:56.783Z,570.30
2023-03-22T13:32:54.566Z,495.50
2023-03-22T13:37:51.834Z,400.83
2023-03-22T13:42:22.294Z,424.38
2023-03-22T13:46:51.476Z,388.23
2023-03-22T13:51:14.825Z,331.17
2023-03-22T13:55:42.869Z,372.33
2023-03-22T14:00:20.715Z,364.08
2023-03-22T14:04:47.564Z,254.67
2023-03-22T14:09:19.688Z,260.20
2023-03-22T14:13:47.903Z,254.02
2023-03-22T14:18:18.833Z,232.53
